sensor_id;sensor_type;location;lat;lon;timestamp;P1;durP1;ratioP1;P2;durP2;ratioP2
77507;SDS011;66618;42.666;23.360;2023-03-03T00:00:24;6.80;;;4.07;;
77507;SDS011;66618;42.666;23.360;2023-03-03T00:02:49;6.03;;;3.63;;
77507;SDS011;66618;42.666;23.360;2023-03-03T00:05:15;6.07;;;4.07;;
77507;SDS011;66618;42.666;23.360;2023-03-03T00:07:45;7.35;;;4.85;;
77507;SDS011;66618;42.666;23.360;2023-03-03T00:10:12;7.63;;;4.35;;
77507;SDS011;66618;42.666;23.360;2023-03-03T00:12:44;7.03;;;4.00;;
77507;SDS011;66618;42.666;23.360;2023-03-03T00:15:18;5.57;;;4.28;;
77507;SDS011;66618;42.666;23.360;2023-03-03T00:17:45;7.43;;;4.50;;
77507;SDS011;66618;42.666;23.360;2023-03-03T00:26:06;7.07;;;4.70;;
77507;SDS011;66618;42.666;23.360;2023-03-03T00:28:45;6.65;;;4.72;;
77507;SDS011;66618;42.666;23.360;2023-03-03T00:31:16;7.95;;;5.53;;
77507;SDS011;66618;42.666;23.360;2023-03-03T00:33:47;7.00;;;4.53;;
77507;SDS011;66618;42.666;23.360;2023-03-03T00:36:37;9.75;;;6.50;;
77507;SDS011;66618;42.666;23.360;2023-03-03T00:42:00;8.95;;;6.10;;
77507;SDS011;66618;42.666;23.360;2023-03-03T00:47:00;7.18;;;4.15;;
77507;SDS011;66618;42.666;23.360;2023-03-03T00:49:46;11.57;;;6.43;;
77507;SDS011;66618;42.666;23.360;2023-03-03T00:52:15;6.75;;;4.55;;
77507;SDS011;66618;42.666;23.360;2023-03-03T00:54:41;4.32;;;3.30;;
77507;SDS011;66618;42.666;23.360;2023-03-03T00:57:07;6.32;;;4.18;;
77507;SDS011;66618;42.666;23.360;2023-03-03T00:59:32;7.47;;;4.53;;
77507;SDS011;66618;42.666;23.360;2023-03-03T01:01:58;7.75;;;5.18;;
77507;SDS011;66618;42.666;23.360;2023-03-03T01:04:23;6.20;;;3.95;;
77507;SDS011;66618;42.666;23.360;2023-03-03T01:06:48;5.45;;;4.32;;
77507;SDS011;66618;42.666;23.360;2023-03-03T01:09:14;7.35;;;4.47;;
77507;SDS011;66618;42.666;23.360;2023-03-03T01:11:39;6.05;;;3.63;;
77507;SDS011;66618;42.666;23.360;2023-03-03T01:14:05;10.48;;;5.05;;
77507;SDS011;66618;42.666;23.360;2023-03-03T01:16:30;5.88;;;3.03;;
77507;SDS011;66618;42.666;23.360;2023-03-03T01:18:56;6.03;;;3.70;;
77507;SDS011;66618;42.666;23.360;2023-03-03T01:21:22;8.05;;;4.80;;
77507;SDS011;66618;42.666;23.360;2023-03-03T01:23:47;9.13;;;5.25;;
77507;SDS011;66618;42.666;23.360;2023-03-03T01:26:12;7.57;;;4.65;;
77507;SDS011;66618;42.666;23.360;2023-03-03T01:28:38;11.20;;;6.38;;
77507;SDS011;66618;42.666;23.360;2023-03-03T01:31:04;8.60;;;4.70;;
77507;SDS011;66618;42.666;23.360;2023-03-03T01:33:30;8.38;;;4.78;;
77507;SDS011;66618;42.666;23.360;2023-03-03T01:35:56;9.30;;;5.82;;
77507;SDS011;66618;42.666;23.360;2023-03-03T01:38:22;7.25;;;4.07;;
77507;SDS011;66618;42.666;23.360;2023-03-03T01:40:51;10.93;;;5.90;;
77507;SDS011;66618;42.666;23.360;2023-03-03T01:43:18;9.55;;;5.40;;
77507;SDS011;66618;42.666;23.360;2023-03-03T01:48:35;8.60;;;5.15;;
77507;SDS011;66618;42.666;23.360;2023-03-03T01:51:04;8.63;;;5.15;;
77507;SDS011;66618;42.666;23.360;2023-03-03T01:53:51;7.68;;;4.50;;
77507;SDS011;66618;42.666;23.360;2023-03-03T01:56:17;7.45;;;4.35;;
77507;SDS011;66618;42.666;23.360;2023-03-03T02:01:17;9.50;;;5.53;;
77507;SDS011;66618;42.666;23.360;2023-03-03T02:03:45;7.95;;;4.75;;
77507;SDS011;66618;42.666;23.360;2023-03-03T02:06:15;6.28;;;4.10;;
77507;SDS011;66618;42.666;23.360;2023-03-03T02:11:15;7.57;;;4.30;;
77507;SDS011;66618;42.666;23.360;2023-03-03T02:13:41;8.50;;;5.43;;
77507;SDS011;66618;42.666;23.360;2023-03-03T02:16:06;8.35;;;4.35;;
77507;SDS011;66618;42.666;23.360;2023-03-03T02:18:32;6.72;;;4.30;;
77507;SDS011;66618;42.666;23.360;2023-03-03T02:24:15;5.90;;;4.05;;
77507;SDS011;66618;42.666;23.360;2023-03-03T02:26:50;8.07;;;5.40;;
77507;SDS011;66618;42.666;23.360;2023-03-03T02:29:16;6.15;;;3.88;;
77507;SDS011;66618;42.666;23.360;2023-03-03T02:31:41;9.57;;;6.15;;
77507;SDS011;66618;42.666;23.360;2023-03-03T02:34:07;8.43;;;5.07;;
77507;SDS011;66618;42.666;23.360;2023-03-03T02:36:34;9.50;;;5.10;;
77507;SDS011;66618;42.666;23.360;2023-03-03T02:39:15;8.05;;;5.10;;
77507;SDS011;66618;42.666;23.360;2023-03-03T02:44:39;10.10;;;5.13;;
77507;SDS011;66618;42.666;23.360;2023-03-03T02:47:05;9.98;;;5.95;;
77507;SDS011;66618;42.666;23.360;2023-03-03T02:49:31;9.00;;;5.00;;
77507;SDS011;66618;42.666;23.360;2023-03-03T02:51:59;10.55;;;5.15;;
77507;SDS011;66618;42.666;23.360;2023-03-03T02:54:26;8.65;;;4.88;;
77507;SDS011;66618;42.666;23.360;2023-03-03T02:56:52;6.95;;;4.30;;
77507;SDS011;66618;42.666;23.360;2023-03-03T02:59:17;9.20;;;5.00;;
77507;SDS011;66618;42.666;23.360;2023-03-03T03:01:43;8.57;;;5.38;;
77507;SDS011;66618;42.666;23.360;2023-03-03T03:04:13;9.80;;;6.05;;
77507;SDS011;66618;42.666;23.360;2023-03-03T03:06:40;10.32;;;5.30;;
77507;SDS011;66618;42.666;23.360;2023-03-03T03:09:06;7.93;;;4.78;;
77507;SDS011;66618;42.666;23.360;2023-03-03T03:11:32;9.52;;;5.75;;
77507;SDS011;66618;42.666;23.360;2023-03-03T03:13:59;8.85;;;5.25;;
77507;SDS011;66618;42.666;23.360;2023-03-03T03:16:25;8.70;;;5.22;;
77507;SDS011;66618;42.666;23.360;2023-03-03T03:18:50;8.93;;;5.57;;
77507;SDS011;66618;42.666;23.360;2023-03-03T03:21:16;10.00;;;6.15;;
77507;SDS011;66618;42.666;23.360;2023-03-03T03:23:41;12.57;;;6.63;;
77507;SDS011;66618;42.666;23.360;2023-03-03T03:26:07;10.98;;;6.47;;
77507;SDS011;66618;42.666;23.360;2023-03-03T03:28:33;10.25;;;6.30;;
77507;SDS011;66618;42.666;23.360;2023-03-03T03:30:59;11.95;;;7.55;;
77507;SDS011;66618;42.666;23.360;2023-03-03T03:33:24;10.90;;;6.32;;
77507;SDS011;66618;42.666;23.360;2023-03-03T03:35:52;8.20;;;5.00;;
77507;SDS011;66618;42.666;23.360;2023-03-03T03:38:19;8.10;;;5.43;;
77507;SDS011;66618;42.666;23.360;2023-03-03T03:40:45;7.97;;;4.95;;
77507;SDS011;66618;42.666;23.360;2023-03-03T03:43:10;8.40;;;5.28;;
77507;SDS011;66618;42.666;23.360;2023-03-03T03:45:36;11.90;;;8.30;;
77507;SDS011;66618;42.666;23.360;2023-03-03T03:48:01;8.80;;;5.38;;
77507;SDS011;66618;42.666;23.360;2023-03-03T03:50:27;12.70;;;7.40;;
77507;SDS011;66618;42.666;23.360;2023-03-03T03:52:52;11.60;;;6.85;;
77507;SDS011;66618;42.666;23.360;2023-03-03T03:55:17;11.48;;;6.03;;
77507;SDS011;66618;42.666;23.360;2023-03-03T03:57:43;17.30;;;9.07;;
77507;SDS011;66618;42.666;23.360;2023-03-03T04:00:09;11.68;;;7.10;;
77507;SDS011;66618;42.666;23.360;2023-03-03T04:02:35;14.05;;;8.43;;
77507;SDS011;66618;42.666;23.360;2023-03-03T04:05:01;14.38;;;7.88;;
77507;SDS011;66618;42.666;23.360;2023-03-03T04:07:27;14.57;;;7.75;;
77507;SDS011;66618;42.666;23.360;2023-03-03T04:09:52;18.17;;;8.43;;
77507;SDS011;66618;42.666;23.360;2023-03-03T04:12:18;15.25;;;7.88;;
77507;SDS011;66618;42.666;23.360;2023-03-03T04:14:43;11.75;;;6.93;;
77507;SDS011;66618;42.666;23.360;2023-03-03T04:17:14;18.35;;;8.77;;
77507;SDS011;66618;42.666;23.360;2023-03-03T04:19:41;16.02;;;8.10;;
77507;SDS011;66618;42.666;23.360;2023-03-03T04:22:06;17.63;;;8.50;;
77507;SDS011;66618;42.666;23.360;2023-03-03T04:24:32;17.40;;;8.35;;
77507;SDS011;66618;42.666;23.360;2023-03-03T04:26:57;16.10;;;8.52;;
77507;SDS011;66618;42.666;23.360;2023-03-03T04:29:22;17.33;;;10.07;;
77507;SDS011;66618;42.666;23.360;2023-03-03T04:31:48;19.13;;;8.93;;
77507;SDS011;66618;42.666;23.360;2023-03-03T04:34:13;14.32;;;7.25;;
77507;SDS011;66618;42.666;23.360;2023-03-03T04:36:39;12.82;;;6.95;;
77507;SDS011;66618;42.666;23.360;2023-03-03T04:39:04;15.23;;;7.47;;
77507;SDS011;66618;42.666;23.360;2023-03-03T04:41:29;16.50;;;8.93;;
77507;SDS011;66618;42.666;23.360;2023-03-03T04:43:55;14.75;;;7.55;;
77507;SDS011;66618;42.666;23.360;2023-03-03T04:46:20;15.95;;;8.60;;
77507;SDS011;66618;42.666;23.360;2023-03-03T04:48:46;21.67;;;9.93;;
77507;SDS011;66618;42.666;23.360;2023-03-03T04:51:11;20.48;;;9.82;;
77507;SDS011;66618;42.666;23.360;2023-03-03T04:53:36;16.75;;;8.73;;
77507;SDS011;66618;42.666;23.360;2023-03-03T04:56:02;18.77;;;7.72;;
77507;SDS011;66618;42.666;23.360;2023-03-03T04:58:28;15.20;;;7.50;;
77507;SDS011;66618;42.666;23.360;2023-03-03T05:00:54;15.38;;;7.47;;
77507;SDS011;66618;42.666;23.360;2023-03-03T05:03:21;17.27;;;9.50;;
77507;SDS011;66618;42.666;23.360;2023-03-03T05:05:47;18.80;;;9.57;;
77507;SDS011;66618;42.666;23.360;2023-03-03T05:08:13;16.52;;;8.63;;
77507;SDS011;66618;42.666;23.360;2023-03-03T05:10:39;17.17;;;8.13;;
77507;SDS011;66618;42.666;23.360;2023-03-03T05:13:05;20.35;;;9.38;;
77507;SDS011;66618;42.666;23.360;2023-03-03T05:15:31;13.52;;;6.95;;
77507;SDS011;66618;42.666;23.360;2023-03-03T05:17:56;14.15;;;7.47;;
77507;SDS011;66618;42.666;23.360;2023-03-03T05:20:23;16.70;;;8.00;;
77507;SDS011;66618;42.666;23.360;2023-03-03T05:22:49;19.45;;;8.60;;
77507;SDS011;66618;42.666;23.360;2023-03-03T05:25:14;12.75;;;7.32;;
77507;SDS011;66618;42.666;23.360;2023-03-03T05:27:40;18.33;;;9.52;;
77507;SDS011;66618;42.666;23.360;2023-03-03T05:30:05;14.43;;;7.55;;
77507;SDS011;66618;42.666;23.360;2023-03-03T05:32:31;20.98;;;9.73;;
77507;SDS011;66618;42.666;23.360;2023-03-03T05:34:57;16.52;;;8.40;;
77507;SDS011;66618;42.666;23.360;2023-03-03T05:37:22;11.32;;;6.05;;
77507;SDS011;66618;42.666;23.360;2023-03-03T05:39:48;21.00;;;10.80;;
77507;SDS011;66618;42.666;23.360;2023-03-03T05:42:14;16.10;;;8.57;;
77507;SDS011;66618;42.666;23.360;2023-03-03T05:44:39;20.05;;;10.73;;
77507;SDS011;66618;42.666;23.360;2023-03-03T05:47:05;22.63;;;10.27;;
77507;SDS011;66618;42.666;23.360;2023-03-03T05:49:30;19.85;;;9.07;;
77507;SDS011;66618;42.666;23.360;2023-03-03T05:51:56;16.45;;;9.00;;
77507;SDS011;66618;42.666;23.360;2023-03-03T05:54:21;19.95;;;8.98;;
77507;SDS011;66618;42.666;23.360;2023-03-03T05:56:46;18.30;;;9.18;;
77507;SDS011;66618;42.666;23.360;2023-03-03T05:59:12;17.77;;;8.88;;
77507;SDS011;66618;42.666;23.360;2023-03-03T06:01:37;17.23;;;9.18;;
77507;SDS011;66618;42.666;23.360;2023-03-03T06:04:03;20.02;;;9.57;;
77507;SDS011;66618;42.666;23.360;2023-03-03T06:06:28;18.27;;;8.93;;
77507;SDS011;66618;42.666;23.360;2023-03-03T06:08:54;14.80;;;7.80;;
77507;SDS011;66618;42.666;23.360;2023-03-03T06:11:19;20.58;;;10.52;;
77507;SDS011;66618;42.666;23.360;2023-03-03T06:13:44;17.75;;;9.18;;
77507;SDS011;66618;42.666;23.360;2023-03-03T06:16:10;24.95;;;11.77;;
77507;SDS011;66618;42.666;23.360;2023-03-03T06:18:35;21.27;;;10.55;;
77507;SDS011;66618;42.666;23.360;2023-03-03T06:21:01;21.17;;;9.10;;
77507;SDS011;66618;42.666;23.360;2023-03-03T06:23:26;17.02;;;9.15;;
77507;SDS011;66618;42.666;23.360;2023-03-03T06:25:52;16.35;;;8.68;;
77507;SDS011;66618;42.666;23.360;2023-03-03T06:28:17;20.42;;;10.18;;
77507;SDS011;66618;42.666;23.360;2023-03-03T06:30:43;18.60;;;9.10;;
77507;SDS011;66618;42.666;23.360;2023-03-03T06:33:09;18.63;;;9.50;;
77507;SDS011;66618;42.666;23.360;2023-03-03T06:35:34;13.18;;;7.53;;
77507;SDS011;66618;42.666;23.360;2023-03-03T06:37:59;16.08;;;9.10;;
77507;SDS011;66618;42.666;23.360;2023-03-03T06:40:25;18.35;;;9.52;;
77507;SDS011;66618;42.666;23.360;2023-03-03T06:42:50;17.38;;;8.65;;
77507;SDS011;66618;42.666;23.360;2023-03-03T06:45:15;17.25;;;8.60;;
77507;SDS011;66618;42.666;23.360;2023-03-03T06:47:41;18.45;;;9.98;;
77507;SDS011;66618;42.666;23.360;2023-03-03T06:50:08;18.92;;;9.43;;
77507;SDS011;66618;42.666;23.360;2023-03-03T06:52:34;21.13;;;9.63;;
77507;SDS011;66618;42.666;23.360;2023-03-03T06:55:01;15.77;;;7.10;;
77507;SDS011;66618;42.666;23.360;2023-03-03T06:57:35;14.23;;;7.45;;
77507;SDS011;66618;42.666;23.360;2023-03-03T07:00:23;13.63;;;7.13;;
77507;SDS011;66618;42.666;23.360;2023-03-03T07:03:01;18.08;;;10.48;;
77507;SDS011;66618;42.666;23.360;2023-03-03T07:05:31;14.13;;;7.45;;
77507;SDS011;66618;42.666;23.360;2023-03-03T07:07:58;11.45;;;7.03;;
77507;SDS011;66618;42.666;23.360;2023-03-03T07:10:24;15.25;;;8.30;;
77507;SDS011;66618;42.666;23.360;2023-03-03T07:12:51;13.82;;;7.72;;
77507;SDS011;66618;42.666;23.360;2023-03-03T07:15:35;12.77;;;6.80;;
77507;SDS011;66618;42.666;23.360;2023-03-03T07:18:00;13.13;;;7.10;;
77507;SDS011;66618;42.666;23.360;2023-03-03T07:20:29;13.30;;;6.88;;
77507;SDS011;66618;42.666;23.360;2023-03-03T07:22:59;15.85;;;8.70;;
77507;SDS011;66618;42.666;23.360;2023-03-03T07:25:31;17.25;;;10.35;;
77507;SDS011;66618;42.666;23.360;2023-03-03T07:28:00;11.43;;;7.45;;
77507;SDS011;66618;42.666;23.360;2023-03-03T07:30:53;16.90;;;9.20;;
77507;SDS011;66618;42.666;23.360;2023-03-03T07:33:23;10.02;;;5.65;;
77507;SDS011;66618;42.666;23.360;2023-03-03T07:35:51;10.18;;;6.10;;
77507;SDS011;66618;42.666;23.360;2023-03-03T07:38:22;12.40;;;7.10;;
77507;SDS011;66618;42.666;23.360;2023-03-03T07:40:53;15.23;;;7.97;;
77507;SDS011;66618;42.666;23.360;2023-03-03T07:43:40;12.63;;;7.03;;
77507;SDS011;66618;42.666;23.360;2023-03-03T07:49:30;12.63;;;6.45;;
77507;SDS011;66618;42.666;23.360;2023-03-03T07:54:44;14.32;;;8.30;;
77507;SDS011;66618;42.666;23.360;2023-03-03T07:57:18;10.32;;;5.43;;
77507;SDS011;66618;42.666;23.360;2023-03-03T07:59:47;11.63;;;6.90;;
77507;SDS011;66618;42.666;23.360;2023-03-03T08:02:57;16.90;;;8.30;;
77507;SDS011;66618;42.666;23.360;2023-03-03T08:08:12;10.55;;;5.72;;
77507;SDS011;66618;42.666;23.360;2023-03-03T08:13:08;10.30;;;6.15;;
77507;SDS011;66618;42.666;23.360;2023-03-03T08:16:00;12.15;;;6.15;;
77507;SDS011;66618;42.666;23.360;2023-03-03T08:18:27;14.15;;;8.25;;
77507;SDS011;66618;42.666;23.360;2023-03-03T08:23:35;17.23;;;9.85;;
77507;SDS011;66618;42.666;23.360;2023-03-03T08:26:01;16.42;;;8.50;;
77507;SDS011;66618;42.666;23.360;2023-03-03T08:28:26;16.45;;;8.88;;
77507;SDS011;66618;42.666;23.360;2023-03-03T08:30:51;13.82;;;7.28;;
77507;SDS011;66618;42.666;23.360;2023-03-03T08:33:17;16.08;;;8.35;;
77507;SDS011;66618;42.666;23.360;2023-03-03T08:35:43;15.57;;;9.02;;
77507;SDS011;66618;42.666;23.360;2023-03-03T08:38:09;18.95;;;10.48;;
77507;SDS011;66618;42.666;23.360;2023-03-03T08:40:35;19.48;;;9.18;;
77507;SDS011;66618;42.666;23.360;2023-03-03T08:43:01;19.17;;;10.05;;
77507;SDS011;66618;42.666;23.360;2023-03-03T08:45:27;19.17;;;9.05;;
77507;SDS011;66618;42.666;23.360;2023-03-03T08:47:53;18.40;;;10.20;;
77507;SDS011;66618;42.666;23.360;2023-03-03T08:50:18;21.83;;;9.70;;
77507;SDS011;66618;42.666;23.360;2023-03-03T08:52:44;17.88;;;9.98;;
77507;SDS011;66618;42.666;23.360;2023-03-03T08:55:10;19.95;;;10.55;;
77507;SDS011;66618;42.666;23.360;2023-03-03T08:57:36;18.00;;;9.35;;
77507;SDS011;66618;42.666;23.360;2023-03-03T09:00:03;17.58;;;9.00;;
77507;SDS011;66618;42.666;23.360;2023-03-03T09:02:29;15.60;;;9.02;;
77507;SDS011;66618;42.666;23.360;2023-03-03T09:04:54;11.15;;;6.60;;
77507;SDS011;66618;42.666;23.360;2023-03-03T09:07:20;11.20;;;4.60;;
77507;SDS011;66618;42.666;23.360;2023-03-03T09:09:45;10.35;;;5.97;;
77507;SDS011;66618;42.666;23.360;2023-03-03T09:12:15;15.48;;;7.57;;
77507;SDS011;66618;42.666;23.360;2023-03-03T09:14:42;16.73;;;9.18;;
77507;SDS011;66618;42.666;23.360;2023-03-03T09:17:18;9.98;;;5.07;;
77507;SDS011;66618;42.666;23.360;2023-03-03T09:19:49;12.05;;;6.25;;
77507;SDS011;66618;42.666;23.360;2023-03-03T09:22:18;13.07;;;7.60;;
77507;SDS011;66618;42.666;23.360;2023-03-03T09:24:46;14.27;;;8.40;;
77507;SDS011;66618;42.666;23.360;2023-03-03T09:27:14;10.45;;;5.45;;
77507;SDS011;66618;42.666;23.360;2023-03-03T09:29:44;12.75;;;6.07;;
77507;SDS011;66618;42.666;23.360;2023-03-03T09:32:32;13.88;;;6.45;;
77507;SDS011;66618;42.666;23.360;2023-03-03T09:34:58;10.30;;;5.75;;
77507;SDS011;66618;42.666;23.360;2023-03-03T09:37:28;13.95;;;7.30;;
77507;SDS011;66618;42.666;23.360;2023-03-03T09:39:57;16.27;;;6.05;;
77507;SDS011;66618;42.666;23.360;2023-03-03T09:51:17;14.55;;;7.10;;
77507;SDS011;66618;42.666;23.360;2023-03-03T10:14:22;11.48;;;6.30;;
77507;SDS011;66618;42.666;23.360;2023-03-03T10:16:52;12.10;;;7.03;;
77507;SDS011;66618;42.666;23.360;2023-03-03T10:22:17;10.63;;;6.35;;
77507;SDS011;66618;42.666;23.360;2023-03-03T10:25:07;11.15;;;6.47;;
77507;SDS011;66618;42.666;23.360;2023-03-03T10:38:41;12.05;;;6.65;;
77507;SDS011;66618;42.666;23.360;2023-03-03T10:46:32;14.80;;;7.80;;
77507;SDS011;66618;42.666;23.360;2023-03-03T10:57:29;14.50;;;8.00;;
77507;SDS011;66618;42.666;23.360;2023-03-03T11:02:41;15.50;;;7.68;;
77507;SDS011;66618;42.666;23.360;2023-03-03T11:08:13;10.85;;;6.82;;
77507;SDS011;66618;42.666;23.360;2023-03-03T11:11:17;11.93;;;7.25;;
77507;SDS011;66618;42.666;23.360;2023-03-03T11:21:31;11.68;;;7.53;;
77507;SDS011;66618;42.666;23.360;2023-03-03T11:24:10;12.07;;;7.75;;
77507;SDS011;66618;42.666;23.360;2023-03-03T11:43:00;15.48;;;9.15;;
77507;SDS011;66618;42.666;23.360;2023-03-03T11:45:35;15.38;;;9.25;;
77507;SDS011;66618;42.666;23.360;2023-03-03T11:50:56;19.70;;;9.40;;
77507;SDS011;66618;42.666;23.360;2023-03-03T11:53:31;14.05;;;9.10;;
77507;SDS011;66618;42.666;23.360;2023-03-03T11:56:21;16.63;;;9.35;;
77507;SDS011;66618;42.666;23.360;2023-03-03T11:58:53;15.77;;;9.63;;
77507;SDS011;66618;42.666;23.360;2023-03-03T12:01:27;19.10;;;10.05;;
77507;SDS011;66618;42.666;23.360;2023-03-03T12:09:43;18.35;;;10.88;;
77507;SDS011;66618;42.666;23.360;2023-03-03T12:12:27;19.35;;;10.65;;
77507;SDS011;66618;42.666;23.360;2023-03-03T12:20:39;20.10;;;11.07;;
77507;SDS011;66618;42.666;23.360;2023-03-03T12:23:37;22.95;;;12.60;;
77507;SDS011;66618;42.666;23.360;2023-03-03T12:28:57;18.95;;;10.80;;
77507;SDS011;66618;42.666;23.360;2023-03-03T12:34:33;20.45;;;11.93;;
77507;SDS011;66618;42.666;23.360;2023-03-03T12:37:09;20.42;;;11.55;;
77507;SDS011;66618;42.666;23.360;2023-03-03T12:45:40;20.30;;;11.20;;
77507;SDS011;66618;42.666;23.360;2023-03-03T12:48:20;19.55;;;10.95;;
77507;SDS011;66618;42.666;23.360;2023-03-03T12:50:58;18.45;;;10.90;;
77507;SDS011;66618;42.666;23.360;2023-03-03T12:53:39;18.73;;;11.27;;
77507;SDS011;66618;42.666;23.360;2023-03-03T12:56:20;19.33;;;10.73;;
77507;SDS011;66618;42.666;23.360;2023-03-03T12:59:32;18.70;;;10.98;;
77507;SDS011;66618;42.666;23.360;2023-03-03T13:16:37;13.20;;;7.90;;
77507;SDS011;66618;42.666;23.360;2023-03-03T13:19:10;14.02;;;8.10;;
77507;SDS011;66618;42.666;23.360;2023-03-03T13:21:44;13.93;;;8.57;;
77507;SDS011;66618;42.666;23.360;2023-03-03T13:26:54;13.88;;;7.80;;
77507;SDS011;66618;42.666;23.360;2023-03-03T13:29:26;9.03;;;6.27;;
77507;SDS011;66618;42.666;23.360;2023-03-03T13:32:02;11.93;;;7.50;;
77507;SDS011;66618;42.666;23.360;2023-03-03T13:34:42;9.18;;;5.90;;
77507;SDS011;66618;42.666;23.360;2023-03-03T13:37:12;8.27;;;5.47;;
77507;SDS011;66618;42.666;23.360;2023-03-03T13:44:55;9.07;;;5.72;;
77507;SDS011;66618;42.666;23.360;2023-03-03T13:50:14;8.75;;;5.72;;
77507;SDS011;66618;42.666;23.360;2023-03-03T13:53:10;9.02;;;5.53;;
77507;SDS011;66618;42.666;23.360;2023-03-03T13:58:58;9.43;;;5.55;;
77507;SDS011;66618;42.666;23.360;2023-03-03T14:04:24;9.25;;;5.43;;
77507;SDS011;66618;42.666;23.360;2023-03-03T14:07:17;12.30;;;6.13;;
77507;SDS011;66618;42.666;23.360;2023-03-03T14:10:06;10.75;;;6.68;;
77507;SDS011;66618;42.666;23.360;2023-03-03T14:12:39;11.77;;;6.43;;
77507;SDS011;66618;42.666;23.360;2023-03-03T14:15:10;10.05;;;6.55;;
77507;SDS011;66618;42.666;23.360;2023-03-03T14:20:46;10.93;;;6.93;;
77507;SDS011;66618;42.666;23.360;2023-03-03T14:23:15;9.98;;;6.60;;
77507;SDS011;66618;42.666;23.360;2023-03-03T14:25:58;13.70;;;7.57;;
77507;SDS011;66618;42.666;23.360;2023-03-03T14:28:38;10.60;;;6.90;;
77507;SDS011;66618;42.666;23.360;2023-03-03T14:31:40;14.00;;;8.07;;
77507;SDS011;66618;42.666;23.360;2023-03-03T14:36:37;12.90;;;8.10;;
77507;SDS011;66618;42.666;23.360;2023-03-03T14:42:12;12.98;;;8.73;;
77507;SDS011;66618;42.666;23.360;2023-03-03T14:49:38;12.20;;;7.85;;
77507;SDS011;66618;42.666;23.360;2023-03-03T14:52:17;12.63;;;8.15;;
77507;SDS011;66618;42.666;23.360;2023-03-03T14:54:48;12.35;;;7.68;;
77507;SDS011;66618;42.666;23.360;2023-03-03T15:00:24;12.00;;;7.55;;
77507;SDS011;66618;42.666;23.360;2023-03-03T15:05:29;11.45;;;6.97;;
77507;SDS011;66618;42.666;23.360;2023-03-03T15:10:51;11.50;;;7.70;;
77507;SDS011;66618;42.666;23.360;2023-03-03T15:16:02;11.50;;;7.15;;
77507;SDS011;66618;42.666;23.360;2023-03-03T15:18:33;16.38;;;8.70;;
77507;SDS011;66618;42.666;23.360;2023-03-03T15:23:52;12.30;;;7.47;;
77507;SDS011;66618;42.666;23.360;2023-03-03T15:28:57;10.73;;;7.40;;
77507;SDS011;66618;42.666;23.360;2023-03-03T15:34:41;11.40;;;8.15;;
77507;SDS011;66618;42.666;23.360;2023-03-03T15:45:14;12.60;;;7.72;;
77507;SDS011;66618;42.666;23.360;2023-03-03T15:58:22;17.00;;;10.98;;
77507;SDS011;66618;42.666;23.360;2023-03-03T16:01:16;17.42;;;11.60;;
77507;SDS011;66618;42.666;23.360;2023-03-03T16:03:52;17.98;;;10.75;;
77507;SDS011;66618;42.666;23.360;2023-03-03T16:17:19;17.60;;;10.57;;
77507;SDS011;66618;42.666;23.360;2023-03-03T16:19:58;18.30;;;10.50;;
77507;SDS011;66618;42.666;23.360;2023-03-03T16:31:28;14.77;;;9.30;;
77507;SDS011;66618;42.666;23.360;2023-03-03T16:34:00;17.77;;;10.07;;
77507;SDS011;66618;42.666;23.360;2023-03-03T16:36:51;14.57;;;9.05;;
77507;SDS011;66618;42.666;23.360;2023-03-03T16:39:24;13.65;;;8.18;;
77507;SDS011;66618;42.666;23.360;2023-03-03T16:52:42;12.85;;;7.95;;
77507;SDS011;66618;42.666;23.360;2023-03-03T16:55:14;15.05;;;8.32;;
77507;SDS011;66618;42.666;23.360;2023-03-03T17:00:26;12.25;;;7.40;;
77507;SDS011;66618;42.666;23.360;2023-03-03T17:03:02;11.65;;;7.38;;
77507;SDS011;66618;42.666;23.360;2023-03-03T17:06:00;12.55;;;7.78;;
77507;SDS011;66618;42.666;23.360;2023-03-03T17:08:36;12.68;;;7.70;;
77507;SDS011;66618;42.666;23.360;2023-03-03T17:17:00;11.40;;;6.93;;
77507;SDS011;66618;42.666;23.360;2023-03-03T17:19:52;11.07;;;7.00;;
77507;SDS011;66618;42.666;23.360;2023-03-03T17:25:09;10.30;;;6.32;;
77507;SDS011;66618;42.666;23.360;2023-03-03T17:27:57;9.13;;;6.60;;
77507;SDS011;66618;42.666;23.360;2023-03-03T17:30:52;11.82;;;7.07;;
77507;SDS011;66618;42.666;23.360;2023-03-03T17:36:10;12.48;;;7.68;;
77507;SDS011;66618;42.666;23.360;2023-03-03T17:41:38;14.82;;;7.75;;
77507;SDS011;66618;42.666;23.360;2023-03-03T17:53:06;11.80;;;7.95;;
77507;SDS011;66618;42.666;23.360;2023-03-03T17:55:48;15.05;;;9.50;;
77507;SDS011;66618;42.666;23.360;2023-03-03T18:19:30;13.38;;;8.43;;
77507;SDS011;66618;42.666;23.360;2023-03-03T18:27:32;13.02;;;8.30;;
77507;SDS011;66618;42.666;23.360;2023-03-03T18:30:22;13.77;;;8.07;;
77507;SDS011;66618;42.666;23.360;2023-03-03T18:51:53;14.48;;;8.57;;
77507;SDS011;66618;42.666;23.360;2023-03-03T19:04:34;16.75;;;9.05;;
77507;SDS011;66618;42.666;23.360;2023-03-03T19:12:49;16.23;;;8.93;;
77507;SDS011;66618;42.666;23.360;2023-03-03T19:17:55;15.80;;;8.73;;
77507;SDS011;66618;42.666;23.360;2023-03-03T19:20:22;15.48;;;8.77;;
77507;SDS011;66618;42.666;23.360;2023-03-03T19:22:50;15.98;;;9.07;;
77507;SDS011;66618;42.666;23.360;2023-03-03T19:25:19;16.10;;;9.15;;
77507;SDS011;66618;42.666;23.360;2023-03-03T19:28:15;14.70;;;8.90;;
77507;SDS011;66618;42.666;23.360;2023-03-03T19:33:58;14.35;;;8.43;;
77507;SDS011;66618;42.666;23.360;2023-03-03T19:39:47;15.63;;;8.57;;
77507;SDS011;66618;42.666;23.360;2023-03-03T19:42:33;15.13;;;7.75;;
77507;SDS011;66618;42.666;23.360;2023-03-03T19:45:18;13.75;;;8.32;;
77507;SDS011;66618;42.666;23.360;2023-03-03T19:48:04;14.55;;;8.00;;
77507;SDS011;66618;42.666;23.360;2023-03-03T19:50:40;13.43;;;7.35;;
77507;SDS011;66618;42.666;23.360;2023-03-03T19:58:33;13.63;;;8.20;;
77507;SDS011;66618;42.666;23.360;2023-03-03T20:04:28;16.00;;;8.80;;
77507;SDS011;66618;42.666;23.360;2023-03-03T20:14:51;14.05;;;7.70;;
77507;SDS011;66618;42.666;23.360;2023-03-03T20:17:37;12.02;;;7.45;;
77507;SDS011;66618;42.666;23.360;2023-03-03T20:23:06;12.60;;;6.63;;
77507;SDS011;66618;42.666;23.360;2023-03-03T20:26:00;10.70;;;6.13;;
77507;SDS011;66618;42.666;23.360;2023-03-03T20:34:10;10.70;;;5.50;;
77507;SDS011;66618;42.666;23.360;2023-03-03T20:39:08;8.32;;;6.03;;
77507;SDS011;66618;42.666;23.360;2023-03-03T20:41:39;12.07;;;6.63;;
77507;SDS011;66618;42.666;23.360;2023-03-03T20:53:15;12.95;;;6.25;;
77507;SDS011;66618;42.666;23.360;2023-03-03T20:58:47;7.75;;;5.28;;
77507;SDS011;66618;42.666;23.360;2023-03-03T21:01:55;9.73;;;5.57;;
77507;SDS011;66618;42.666;23.360;2023-03-03T21:04:26;7.97;;;5.47;;
77507;SDS011;66618;42.666;23.360;2023-03-03T21:06:53;9.93;;;5.40;;
77507;SDS011;66618;42.666;23.360;2023-03-03T21:11:48;10.10;;;5.70;;
77507;SDS011;66618;42.666;23.360;2023-03-03T21:16:44;9.23;;;5.68;;
77507;SDS011;66618;42.666;23.360;2023-03-03T21:19:11;8.25;;;5.43;;
77507;SDS011;66618;42.666;23.360;2023-03-03T21:21:41;7.30;;;5.15;;
77507;SDS011;66618;42.666;23.360;2023-03-03T21:24:10;10.73;;;5.45;;
77507;SDS011;66618;42.666;23.360;2023-03-03T21:26:45;8.52;;;5.40;;
77507;SDS011;66618;42.666;23.360;2023-03-03T21:29:21;9.73;;;5.57;;
77507;SDS011;66618;42.666;23.360;2023-03-03T21:34:18;8.32;;;5.30;;